Lake Waukomis, Missouri
Current Conditions -  °F | °C
As of 12:54 PM on Friday 31 Oct 2014 (Local Time) from KMKC Reporting Station
Clear Clear  
Wind Chill: 38°   Ceiling: Unl
Heat Index: 44°   Visibility: 10mi
Dew Point: 18°   Wind: 13mph
Humidity: 35%   Direction: 30°NNE
Pressure: 30.49"   Gusts: NA
Location:  39.2125°N, 94.6296°W
Report Text: KMKC 311754Z 03011KT 10SM CLR 07/M08 A3049 RMK AO2 SLP326 T00671078 10067 20022 58003
Loading
Personal Weather Stations






























Interactive Weather Map
Tropical Storm Tracking
New forecast layout! Learn more

10-Day Weather Forecast

Advertisements
Track Severe Weather on mobile